sensor_id;sensor_type;location;lat;lon;timestamp;P1;durP1;ratioP1;P2;durP2;ratioP2
19189;SDS011;9727;50.200;19.038;2023-04-15T00:02:00;10.33;;;7.43;;
19189;SDS011;9727;50.200;19.038;2023-04-15T00:04:26;11.60;;;8.00;;
19189;SDS011;9727;50.200;19.038;2023-04-15T00:06:55;13.83;;;8.30;;
19189;SDS011;9727;50.200;19.038;2023-04-15T00:09:22;16.23;;;9.47;;
19189;SDS011;9727;50.200;19.038;2023-04-15T00:11:50;12.70;;;9.50;;
19189;SDS011;9727;50.200;19.038;2023-04-15T00:14:21;14.40;;;9.50;;
19189;SDS011;9727;50.200;19.038;2023-04-15T00:16:48;15.43;;;9.30;;
19189;SDS011;9727;50.200;19.038;2023-04-15T00:19:20;12.57;;;8.47;;
19189;SDS011;9727;50.200;19.038;2023-04-15T00:21:49;15.10;;;8.60;;
19189;SDS011;9727;50.200;19.038;2023-04-15T00:24:16;16.77;;;10.77;;
19189;SDS011;9727;50.200;19.038;2023-04-15T00:26:43;17.40;;;10.50;;
19189;SDS011;9727;50.200;19.038;2023-04-15T00:29:11;15.43;;;9.87;;
19189;SDS011;9727;50.200;19.038;2023-04-15T00:31:37;13.10;;;8.97;;
19189;SDS011;9727;50.200;19.038;2023-04-15T00:34:04;11.77;;;7.40;;
19189;SDS011;9727;50.200;19.038;2023-04-15T00:36:30;11.87;;;7.33;;
19189;SDS011;9727;50.200;19.038;2023-04-15T00:38:58;9.33;;;7.30;;
19189;SDS011;9727;50.200;19.038;2023-04-15T00:41:24;10.50;;;7.00;;
19189;SDS011;9727;50.200;19.038;2023-04-15T00:43:51;9.73;;;6.70;;
19189;SDS011;9727;50.200;19.038;2023-04-15T00:46:22;11.47;;;6.90;;
19189;SDS011;9727;50.200;19.038;2023-04-15T00:48:49;11.53;;;7.37;;
19189;SDS011;9727;50.200;19.038;2023-04-15T00:51:16;10.53;;;7.10;;
19189;SDS011;9727;50.200;19.038;2023-04-15T00:53:45;10.57;;;7.07;;
19189;SDS011;9727;50.200;19.038;2023-04-15T00:56:12;12.20;;;7.40;;
19189;SDS011;9727;50.200;19.038;2023-04-15T00:58:39;11.83;;;7.57;;
19189;SDS011;9727;50.200;19.038;2023-04-15T01:01:06;11.13;;;7.73;;
19189;SDS011;9727;50.200;19.038;2023-04-15T01:03:34;11.07;;;7.00;;
19189;SDS011;9727;50.200;19.038;2023-04-15T01:06:01;8.37;;;5.53;;
19189;SDS011;9727;50.200;19.038;2023-04-15T01:08:28;10.30;;;6.43;;
19189;SDS011;9727;50.200;19.038;2023-04-15T01:10:56;10.70;;;6.10;;
19189;SDS011;9727;50.200;19.038;2023-04-15T01:13:23;12.53;;;5.97;;
19189;SDS011;9727;50.200;19.038;2023-04-15T01:15:50;9.97;;;6.27;;
19189;SDS011;9727;50.200;19.038;2023-04-15T01:18:18;10.00;;;5.67;;
19189;SDS011;9727;50.200;19.038;2023-04-15T01:20:49;7.67;;;5.30;;
19189;SDS011;9727;50.200;19.038;2023-04-15T01:23:16;7.33;;;5.10;;
19189;SDS011;9727;50.200;19.038;2023-04-15T01:25:53;9.50;;;4.83;;
19189;SDS011;9727;50.200;19.038;2023-04-15T01:28:20;7.17;;;4.33;;
19189;SDS011;9727;50.200;19.038;2023-04-15T01:30:49;6.60;;;4.27;;
19189;SDS011;9727;50.200;19.038;2023-04-15T01:33:16;6.13;;;4.17;;
19189;SDS011;9727;50.200;19.038;2023-04-15T01:35:42;6.93;;;4.47;;
19189;SDS011;9727;50.200;19.038;2023-04-15T01:38:09;5.77;;;4.30;;
19189;SDS011;9727;50.200;19.038;2023-04-15T01:40:36;6.53;;;4.40;;
19189;SDS011;9727;50.200;19.038;2023-04-15T01:43:05;6.70;;;4.00;;
19189;SDS011;9727;50.200;19.038;2023-04-15T01:45:31;6.13;;;4.37;;
19189;SDS011;9727;50.200;19.038;2023-04-15T01:47:58;6.53;;;3.43;;
19189;SDS011;9727;50.200;19.038;2023-04-15T01:50:24;5.83;;;3.90;;
19189;SDS011;9727;50.200;19.038;2023-04-15T01:52:51;5.20;;;3.70;;
19189;SDS011;9727;50.200;19.038;2023-04-15T01:55:18;5.17;;;3.40;;
19189;SDS011;9727;50.200;19.038;2023-04-15T01:57:45;5.53;;;3.27;;
19189;SDS011;9727;50.200;19.038;2023-04-15T02:00:14;4.30;;;3.20;;
19189;SDS011;9727;50.200;19.038;2023-04-15T02:02:41;5.67;;;3.40;;
19189;SDS011;9727;50.200;19.038;2023-04-15T02:05:08;5.83;;;3.50;;
19189;SDS011;9727;50.200;19.038;2023-04-15T02:07:35;4.70;;;3.23;;
19189;SDS011;9727;50.200;19.038;2023-04-15T02:10:02;5.33;;;3.10;;
19189;SDS011;9727;50.200;19.038;2023-04-15T02:12:28;5.03;;;3.40;;
19189;SDS011;9727;50.200;19.038;2023-04-15T02:14:55;4.97;;;3.50;;
19189;SDS011;9727;50.200;19.038;2023-04-15T02:17:23;6.50;;;3.33;;
19189;SDS011;9727;50.200;19.038;2023-04-15T02:19:49;5.70;;;3.17;;
19189;SDS011;9727;50.200;19.038;2023-04-15T02:22:16;4.67;;;3.03;;
19189;SDS011;9727;50.200;19.038;2023-04-15T02:24:44;5.70;;;2.60;;
19189;SDS011;9727;50.200;19.038;2023-04-15T02:27:14;4.50;;;2.83;;
19189;SDS011;9727;50.200;19.038;2023-04-15T02:29:41;4.57;;;2.37;;
19189;SDS011;9727;50.200;19.038;2023-04-15T02:32:08;3.97;;;2.50;;
19189;SDS011;9727;50.200;19.038;2023-04-15T02:34:37;3.50;;;2.10;;
19189;SDS011;9727;50.200;19.038;2023-04-15T02:37:05;5.63;;;3.00;;
19189;SDS011;9727;50.200;19.038;2023-04-15T02:39:31;3.97;;;2.40;;
19189;SDS011;9727;50.200;19.038;2023-04-15T02:41:58;4.07;;;2.57;;
19189;SDS011;9727;50.200;19.038;2023-04-15T02:44:25;6.97;;;2.50;;
19189;SDS011;9727;50.200;19.038;2023-04-15T02:46:51;3.83;;;2.53;;
19189;SDS011;9727;50.200;19.038;2023-04-15T02:49:19;5.60;;;2.53;;
19189;SDS011;9727;50.200;19.038;2023-04-15T02:51:47;3.50;;;2.30;;
19189;SDS011;9727;50.200;19.038;2023-04-15T02:54:14;2.90;;;2.27;;
19189;SDS011;9727;50.200;19.038;2023-04-15T02:56:40;5.43;;;2.20;;
19189;SDS011;9727;50.200;19.038;2023-04-15T02:59:07;3.53;;;2.13;;
19189;SDS011;9727;50.200;19.038;2023-04-15T03:04:36;5.47;;;2.67;;
19189;SDS011;9727;50.200;19.038;2023-04-15T03:07:05;3.60;;;2.23;;
19189;SDS011;9727;50.200;19.038;2023-04-15T03:09:31;3.53;;;2.50;;
19189;SDS011;9727;50.200;19.038;2023-04-15T03:11:59;4.33;;;2.20;;
19189;SDS011;9727;50.200;19.038;2023-04-15T03:14:25;4.40;;;2.60;;
19189;SDS011;9727;50.200;19.038;2023-04-15T03:16:52;4.13;;;2.40;;
19189;SDS011;9727;50.200;19.038;2023-04-15T03:19:21;3.67;;;2.47;;
19189;SDS011;9727;50.200;19.038;2023-04-15T03:21:48;3.80;;;2.60;;
19189;SDS011;9727;50.200;19.038;2023-04-15T03:24:16;3.63;;;2.60;;
19189;SDS011;9727;50.200;19.038;2023-04-15T03:26:42;4.70;;;2.63;;
19189;SDS011;9727;50.200;19.038;2023-04-15T03:29:09;3.33;;;2.17;;
19189;SDS011;9727;50.200;19.038;2023-04-15T03:31:36;2.40;;;1.80;;
19189;SDS011;9727;50.200;19.038;2023-04-15T03:34:02;2.97;;;2.00;;
19189;SDS011;9727;50.200;19.038;2023-04-15T03:36:29;2.87;;;2.07;;
19189;SDS011;9727;50.200;19.038;2023-04-15T03:38:57;3.50;;;2.13;;
19189;SDS011;9727;50.200;19.038;2023-04-15T03:41:25;3.40;;;2.10;;
19189;SDS011;9727;50.200;19.038;2023-04-15T03:43:52;2.63;;;2.07;;
19189;SDS011;9727;50.200;19.038;2023-04-15T03:46:19;3.30;;;1.97;;
19189;SDS011;9727;50.200;19.038;2023-04-15T03:48:52;5.20;;;2.20;;
19189;SDS011;9727;50.200;19.038;2023-04-15T03:51:21;2.70;;;2.10;;
19189;SDS011;9727;50.200;19.038;2023-04-15T03:53:48;4.53;;;2.17;;
19189;SDS011;9727;50.200;19.038;2023-04-15T03:56:14;2.97;;;2.00;;
19189;SDS011;9727;50.200;19.038;2023-04-15T03:58:42;4.40;;;2.37;;
19189;SDS011;9727;50.200;19.038;2023-04-15T04:01:10;5.03;;;1.97;;
19189;SDS011;9727;50.200;19.038;2023-04-15T04:03:38;3.23;;;2.33;;
19189;SDS011;9727;50.200;19.038;2023-04-15T04:06:05;4.73;;;1.90;;
19189;SDS011;9727;50.200;19.038;2023-04-15T04:08:32;3.27;;;2.07;;
19189;SDS011;9727;50.200;19.038;2023-04-15T04:10:58;5.23;;;2.50;;
19189;SDS011;9727;50.200;19.038;2023-04-15T04:13:25;3.13;;;2.03;;
19189;SDS011;9727;50.200;19.038;2023-04-15T04:16:07;3.10;;;2.27;;
19189;SDS011;9727;50.200;19.038;2023-04-15T04:18:34;5.70;;;2.10;;
19189;SDS011;9727;50.200;19.038;2023-04-15T04:21:00;3.03;;;2.37;;
19189;SDS011;9727;50.200;19.038;2023-04-15T04:23:27;5.60;;;2.60;;
19189;SDS011;9727;50.200;19.038;2023-04-15T04:25:53;6.93;;;3.10;;
19189;SDS011;9727;50.200;19.038;2023-04-15T04:28:20;6.60;;;3.20;;
19189;SDS011;9727;50.200;19.038;2023-04-15T04:30:53;7.17;;;3.60;;
19189;SDS011;9727;50.200;19.038;2023-04-15T04:33:21;7.50;;;3.20;;
19189;SDS011;9727;50.200;19.038;2023-04-15T04:35:48;7.63;;;4.00;;
19189;SDS011;9727;50.200;19.038;2023-04-15T04:38:15;6.20;;;4.20;;
19189;SDS011;9727;50.200;19.038;2023-04-15T04:40:42;9.10;;;4.27;;
19189;SDS011;9727;50.200;19.038;2023-04-15T04:43:09;6.10;;;3.97;;
19189;SDS011;9727;50.200;19.038;2023-04-15T04:45:35;7.40;;;4.40;;
19189;SDS011;9727;50.200;19.038;2023-04-15T04:48:02;10.23;;;4.17;;
19189;SDS011;9727;50.200;19.038;2023-04-15T04:51:00;8.63;;;4.30;;
19189;SDS011;9727;50.200;19.038;2023-04-15T04:53:26;9.40;;;4.90;;
19189;SDS011;9727;50.200;19.038;2023-04-15T04:55:53;8.80;;;4.90;;
19189;SDS011;9727;50.200;19.038;2023-04-15T04:58:19;13.57;;;5.70;;
19189;SDS011;9727;50.200;19.038;2023-04-15T05:00:49;10.63;;;5.47;;
19189;SDS011;9727;50.200;19.038;2023-04-15T05:03:17;8.67;;;5.40;;
19189;SDS011;9727;50.200;19.038;2023-04-15T05:05:48;10.20;;;5.83;;
19189;SDS011;9727;50.200;19.038;2023-04-15T05:08:17;9.53;;;5.43;;
19189;SDS011;9727;50.200;19.038;2023-04-15T05:10:44;7.07;;;4.50;;
19189;SDS011;9727;50.200;19.038;2023-04-15T05:13:13;7.30;;;4.07;;
19189;SDS011;9727;50.200;19.038;2023-04-15T05:15:40;10.43;;;4.67;;
19189;SDS011;9727;50.200;19.038;2023-04-15T05:18:07;6.90;;;4.10;;
19189;SDS011;9727;50.200;19.038;2023-04-15T05:20:33;10.00;;;4.80;;
19189;SDS011;9727;50.200;19.038;2023-04-15T05:23:00;7.33;;;4.10;;
19189;SDS011;9727;50.200;19.038;2023-04-15T05:25:28;9.53;;;4.77;;
19189;SDS011;9727;50.200;19.038;2023-04-15T05:27:55;9.37;;;5.10;;
19189;SDS011;9727;50.200;19.038;2023-04-15T05:30:21;10.57;;;4.93;;
19189;SDS011;9727;50.200;19.038;2023-04-15T05:32:48;9.90;;;5.23;;
19189;SDS011;9727;50.200;19.038;2023-04-15T05:35:15;7.23;;;4.67;;
19189;SDS011;9727;50.200;19.038;2023-04-15T05:37:42;10.10;;;5.27;;
19189;SDS011;9727;50.200;19.038;2023-04-15T05:40:08;8.33;;;5.00;;
19189;SDS011;9727;50.200;19.038;2023-04-15T05:42:37;9.33;;;6.10;;
19189;SDS011;9727;50.200;19.038;2023-04-15T05:45:04;10.63;;;5.83;;
19189;SDS011;9727;50.200;19.038;2023-04-15T05:47:33;10.17;;;5.70;;
19189;SDS011;9727;50.200;19.038;2023-04-15T05:50:00;10.10;;;5.63;;
19189;SDS011;9727;50.200;19.038;2023-04-15T05:52:26;11.80;;;5.67;;
19189;SDS011;9727;50.200;19.038;2023-04-15T05:54:53;10.27;;;6.20;;
19189;SDS011;9727;50.200;19.038;2023-04-15T05:57:19;11.17;;;7.00;;
19189;SDS011;9727;50.200;19.038;2023-04-15T05:59:50;13.13;;;7.77;;
19189;SDS011;9727;50.200;19.038;2023-04-15T06:02:17;14.00;;;7.50;;
19189;SDS011;9727;50.200;19.038;2023-04-15T06:04:49;11.40;;;7.07;;
19189;SDS011;9727;50.200;19.038;2023-04-15T06:07:16;13.87;;;7.47;;
19189;SDS011;9727;50.200;19.038;2023-04-15T06:09:43;14.87;;;7.27;;
19189;SDS011;9727;50.200;19.038;2023-04-15T06:12:10;12.37;;;7.60;;
19189;SDS011;9727;50.200;19.038;2023-04-15T06:14:37;11.40;;;6.17;;
19189;SDS011;9727;50.200;19.038;2023-04-15T06:17:06;11.97;;;6.40;;
19189;SDS011;9727;50.200;19.038;2023-04-15T06:19:32;8.93;;;5.83;;
19189;SDS011;9727;50.200;19.038;2023-04-15T06:22:00;10.93;;;5.73;;
19189;SDS011;9727;50.200;19.038;2023-04-15T06:24:27;11.57;;;5.97;;
19189;SDS011;9727;50.200;19.038;2023-04-15T06:26:53;9.27;;;5.27;;
19189;SDS011;9727;50.200;19.038;2023-04-15T06:29:20;8.87;;;5.47;;
19189;SDS011;9727;50.200;19.038;2023-04-15T06:31:49;8.03;;;5.00;;
19189;SDS011;9727;50.200;19.038;2023-04-15T06:34:17;6.20;;;3.40;;
19189;SDS011;9727;50.200;19.038;2023-04-15T06:36:49;6.13;;;3.67;;
19189;SDS011;9727;50.200;19.038;2023-04-15T06:39:16;5.77;;;3.63;;
19189;SDS011;9727;50.200;19.038;2023-04-15T06:41:42;6.67;;;3.80;;
19189;SDS011;9727;50.200;19.038;2023-04-15T06:44:09;3.87;;;3.03;;
19189;SDS011;9727;50.200;19.038;2023-04-15T06:46:36;4.60;;;2.90;;
19189;SDS011;9727;50.200;19.038;2023-04-15T06:49:02;5.90;;;3.27;;
19189;SDS011;9727;50.200;19.038;2023-04-15T06:51:30;4.80;;;3.17;;
19189;SDS011;9727;50.200;19.038;2023-04-15T06:53:57;4.90;;;3.33;;
19189;SDS011;9727;50.200;19.038;2023-04-15T06:56:24;6.37;;;3.83;;
19189;SDS011;9727;50.200;19.038;2023-04-15T06:58:51;8.07;;;3.77;;
19189;SDS011;9727;50.200;19.038;2023-04-15T07:01:17;6.63;;;3.40;;
19189;SDS011;9727;50.200;19.038;2023-04-15T07:03:49;5.80;;;3.60;;
19189;SDS011;9727;50.200;19.038;2023-04-15T07:06:16;5.53;;;3.23;;
19189;SDS011;9727;50.200;19.038;2023-04-15T07:08:44;3.97;;;2.77;;
19189;SDS011;9727;50.200;19.038;2023-04-15T07:11:11;6.67;;;3.10;;
19189;SDS011;9727;50.200;19.038;2023-04-15T07:13:38;5.63;;;3.47;;
19189;SDS011;9727;50.200;19.038;2023-04-15T07:16:05;6.87;;;3.70;;
19189;SDS011;9727;50.200;19.038;2023-04-15T07:18:31;5.10;;;3.60;;
19189;SDS011;9727;50.200;19.038;2023-04-15T07:20:58;5.67;;;3.30;;
19189;SDS011;9727;50.200;19.038;2023-04-15T07:23:25;5.70;;;3.40;;
19189;SDS011;9727;50.200;19.038;2023-04-15T07:25:53;4.83;;;3.20;;
19189;SDS011;9727;50.200;19.038;2023-04-15T07:28:19;5.80;;;3.50;;
19189;SDS011;9727;50.200;19.038;2023-04-15T07:30:47;7.00;;;3.20;;
19189;SDS011;9727;50.200;19.038;2023-04-15T07:33:14;3.77;;;2.50;;
19189;SDS011;9727;50.200;19.038;2023-04-15T07:35:40;3.03;;;2.10;;
19189;SDS011;9727;50.200;19.038;2023-04-15T07:38:07;3.03;;;2.20;;
19189;SDS011;9727;50.200;19.038;2023-04-15T07:40:34;5.57;;;2.73;;
19189;SDS011;9727;50.200;19.038;2023-04-15T07:43:02;3.97;;;2.10;;
19189;SDS011;9727;50.200;19.038;2023-04-15T07:45:29;3.33;;;2.37;;
19189;SDS011;9727;50.200;19.038;2023-04-15T07:47:56;3.80;;;2.83;;
19189;SDS011;9727;50.200;19.038;2023-04-15T07:50:22;4.47;;;2.70;;
19189;SDS011;9727;50.200;19.038;2023-04-15T07:52:49;5.27;;;3.03;;
19189;SDS011;9727;50.200;19.038;2023-04-15T07:55:16;3.93;;;2.70;;
19189;SDS011;9727;50.200;19.038;2023-04-15T07:57:47;5.20;;;2.43;;
19189;SDS011;9727;50.200;19.038;2023-04-15T08:00:16;3.27;;;2.03;;
19189;SDS011;9727;50.200;19.038;2023-04-15T08:02:42;4.17;;;1.60;;
19189;SDS011;9727;50.200;19.038;2023-04-15T08:05:11;2.70;;;1.77;;
19189;SDS011;9727;50.200;19.038;2023-04-15T08:07:39;2.50;;;1.80;;
19189;SDS011;9727;50.200;19.038;2023-04-15T08:10:06;2.40;;;1.60;;
19189;SDS011;9727;50.200;19.038;2023-04-15T08:12:32;1.77;;;1.30;;
19189;SDS011;9727;50.200;19.038;2023-04-15T08:15:01;1.43;;;0.90;;
19189;SDS011;9727;50.200;19.038;2023-04-15T08:17:29;3.13;;;1.40;;
19189;SDS011;9727;50.200;19.038;2023-04-15T08:19:56;2.33;;;1.50;;
19189;SDS011;9727;50.200;19.038;2023-04-15T08:22:22;3.70;;;1.60;;
19189;SDS011;9727;50.200;19.038;2023-04-15T08:24:49;3.87;;;1.43;;
19189;SDS011;9727;50.200;19.038;2023-04-15T08:27:16;2.43;;;0.80;;
19189;SDS011;9727;50.200;19.038;2023-04-15T08:29:43;1.13;;;0.80;;
19189;SDS011;9727;50.200;19.038;2023-04-15T08:32:10;1.70;;;0.90;;
19189;SDS011;9727;50.200;19.038;2023-04-15T08:34:38;1.13;;;0.90;;
19189;SDS011;9727;50.200;19.038;2023-04-15T08:37:05;1.50;;;0.90;;
19189;SDS011;9727;50.200;19.038;2023-04-15T08:39:31;0.97;;;0.70;;
19189;SDS011;9727;50.200;19.038;2023-04-15T08:41:59;1.30;;;0.77;;
19189;SDS011;9727;50.200;19.038;2023-04-15T08:44:27;3.33;;;1.90;;
19189;SDS011;9727;50.200;19.038;2023-04-15T08:46:55;2.30;;;1.43;;
19189;SDS011;9727;50.200;19.038;2023-04-15T08:49:22;2.10;;;1.30;;
19189;SDS011;9727;50.200;19.038;2023-04-15T08:51:51;1.93;;;1.20;;
19189;SDS011;9727;50.200;19.038;2023-04-15T08:54:20;1.20;;;1.00;;
19189;SDS011;9727;50.200;19.038;2023-04-15T08:56:47;1.90;;;1.00;;
19189;SDS011;9727;50.200;19.038;2023-04-15T08:59:14;2.07;;;1.30;;
19189;SDS011;9727;50.200;19.038;2023-04-15T09:01:42;2.47;;;0.90;;
19189;SDS011;9727;50.200;19.038;2023-04-15T09:04:14;1.97;;;1.10;;
19189;SDS011;9727;50.200;19.038;2023-04-15T09:06:41;2.90;;;1.30;;
19189;SDS011;9727;50.200;19.038;2023-04-15T09:09:20;1.50;;;1.40;;
19189;SDS011;9727;50.200;19.038;2023-04-15T09:11:47;2.60;;;1.50;;
19189;SDS011;9727;50.200;19.038;2023-04-15T09:14:14;1.83;;;1.40;;
19189;SDS011;9727;50.200;19.038;2023-04-15T09:16:56;2.87;;;1.33;;
19189;SDS011;9727;50.200;19.038;2023-04-15T09:19:23;1.00;;;0.90;;
19189;SDS011;9727;50.200;19.038;2023-04-15T09:21:59;2.17;;;1.20;;
19189;SDS011;9727;50.200;19.038;2023-04-15T09:24:38;1.67;;;1.00;;
19189;SDS011;9727;50.200;19.038;2023-04-15T09:27:07;1.87;;;1.10;;
19189;SDS011;9727;50.200;19.038;2023-04-15T09:29:33;1.50;;;1.03;;
19189;SDS011;9727;50.200;19.038;2023-04-15T09:32:13;5.00;;;1.63;;
19189;SDS011;9727;50.200;19.038;2023-04-15T09:34:40;2.43;;;1.33;;
19189;SDS011;9727;50.200;19.038;2023-04-15T09:37:07;2.63;;;2.10;;
19189;SDS011;9727;50.200;19.038;2023-04-15T09:39:45;5.00;;;1.80;;
19189;SDS011;9727;50.200;19.038;2023-04-15T09:42:16;1.50;;;1.37;;
19189;SDS011;9727;50.200;19.038;2023-04-15T09:44:48;4.67;;;1.73;;
19189;SDS011;9727;50.200;19.038;2023-04-15T09:47:25;4.43;;;1.80;;
19189;SDS011;9727;50.200;19.038;2023-04-15T09:49:54;3.03;;;1.60;;
19189;SDS011;9727;50.200;19.038;2023-04-15T09:52:21;3.23;;;1.60;;
19189;SDS011;9727;50.200;19.038;2023-04-15T09:54:49;3.73;;;1.83;;
19189;SDS011;9727;50.200;19.038;2023-04-15T09:57:20;2.73;;;1.70;;
19189;SDS011;9727;50.200;19.038;2023-04-15T09:59:47;1.40;;;1.20;;
19189;SDS011;9727;50.200;19.038;2023-04-15T10:02:14;2.07;;;1.70;;
19189;SDS011;9727;50.200;19.038;2023-04-15T10:04:41;3.17;;;2.20;;
19189;SDS011;9727;50.200;19.038;2023-04-15T10:07:08;4.93;;;2.30;;
19189;SDS011;9727;50.200;19.038;2023-04-15T10:09:34;2.30;;;2.07;;
19189;SDS011;9727;50.200;19.038;2023-04-15T10:12:03;3.13;;;1.83;;
19189;SDS011;9727;50.200;19.038;2023-04-15T10:14:30;1.97;;;1.60;;
19189;SDS011;9727;50.200;19.038;2023-04-15T10:16:58;2.80;;;1.83;;
19189;SDS011;9727;50.200;19.038;2023-04-15T10:19:26;4.07;;;2.20;;
19189;SDS011;9727;50.200;19.038;2023-04-15T10:21:55;4.30;;;1.70;;
19189;SDS011;9727;50.200;19.038;2023-04-15T10:24:21;3.33;;;1.90;;
19189;SDS011;9727;50.200;19.038;2023-04-15T10:26:49;3.53;;;1.80;;
19189;SDS011;9727;50.200;19.038;2023-04-15T10:29:17;1.77;;;1.40;;
19189;SDS011;9727;50.200;19.038;2023-04-15T10:31:48;2.63;;;2.00;;
19189;SDS011;9727;50.200;19.038;2023-04-15T10:34:15;3.20;;;2.10;;
19189;SDS011;9727;50.200;19.038;2023-04-15T10:36:42;2.00;;;1.60;;
19189;SDS011;9727;50.200;19.038;2023-04-15T10:42:04;2.63;;;1.73;;
19189;SDS011;9727;50.200;19.038;2023-04-15T10:44:32;2.53;;;1.70;;
19189;SDS011;9727;50.200;19.038;2023-04-15T10:47:03;2.33;;;1.70;;
19189;SDS011;9727;50.200;19.038;2023-04-15T10:49:45;2.33;;;1.80;;
19189;SDS011;9727;50.200;19.038;2023-04-15T10:52:22;1.83;;;1.50;;
19189;SDS011;9727;50.200;19.038;2023-04-15T10:54:49;2.17;;;1.60;;
19189;SDS011;9727;50.200;19.038;2023-04-15T10:57:26;2.00;;;1.60;;
19189;SDS011;9727;50.200;19.038;2023-04-15T11:00:02;2.30;;;1.60;;
19189;SDS011;9727;50.200;19.038;2023-04-15T11:02:41;4.57;;;2.43;;
19189;SDS011;9727;50.200;19.038;2023-04-15T11:05:07;4.40;;;2.47;;
19189;SDS011;9727;50.200;19.038;2023-04-15T11:07:35;1.97;;;1.50;;
19189;SDS011;9727;50.200;19.038;2023-04-15T11:13:16;1.97;;;1.70;;
19189;SDS011;9727;50.200;19.038;2023-04-15T11:15:44;3.30;;;2.63;;
19189;SDS011;9727;50.200;19.038;2023-04-15T11:18:20;2.80;;;2.33;;
19189;SDS011;9727;50.200;19.038;2023-04-15T11:23:44;2.70;;;1.97;;
19189;SDS011;9727;50.200;19.038;2023-04-15T11:26:17;3.23;;;1.70;;
19189;SDS011;9727;50.200;19.038;2023-04-15T11:28:45;1.60;;;1.50;;
19189;SDS011;9727;50.200;19.038;2023-04-15T11:31:16;2.30;;;2.10;;
19189;SDS011;9727;50.200;19.038;2023-04-15T11:33:52;3.37;;;2.20;;
19189;SDS011;9727;50.200;19.038;2023-04-15T11:36:22;2.43;;;1.90;;
19189;SDS011;9727;50.200;19.038;2023-04-15T11:38:50;4.30;;;2.10;;
19189;SDS011;9727;50.200;19.038;2023-04-15T11:41:19;2.27;;;1.90;;
19189;SDS011;9727;50.200;19.038;2023-04-15T11:43:47;3.40;;;2.30;;
19189;SDS011;9727;50.200;19.038;2023-04-15T11:46:14;2.90;;;2.17;;
19189;SDS011;9727;50.200;19.038;2023-04-15T11:48:42;4.67;;;2.67;;
19189;SDS011;9727;50.200;19.038;2023-04-15T11:51:10;4.50;;;2.13;;
19189;SDS011;9727;50.200;19.038;2023-04-15T11:53:37;2.50;;;1.90;;
19189;SDS011;9727;50.200;19.038;2023-04-15T11:56:06;4.93;;;2.47;;
19189;SDS011;9727;50.200;19.038;2023-04-15T11:58:33;2.60;;;2.40;;
19189;SDS011;9727;50.200;19.038;2023-04-15T12:01:00;3.00;;;2.70;;
19189;SDS011;9727;50.200;19.038;2023-04-15T12:03:27;3.37;;;2.40;;
19189;SDS011;9727;50.200;19.038;2023-04-15T12:06:05;2.73;;;2.17;;
19189;SDS011;9727;50.200;19.038;2023-04-15T12:08:51;2.47;;;2.03;;
19189;SDS011;9727;50.200;19.038;2023-04-15T12:11:25;2.37;;;1.97;;
19189;SDS011;9727;50.200;19.038;2023-04-15T12:13:53;3.97;;;2.60;;
19189;SDS011;9727;50.200;19.038;2023-04-15T12:16:21;2.77;;;2.37;;
19189;SDS011;9727;50.200;19.038;2023-04-15T12:18:49;2.57;;;1.83;;
19189;SDS011;9727;50.200;19.038;2023-04-15T12:21:21;2.60;;;2.20;;
19189;SDS011;9727;50.200;19.038;2023-04-15T12:23:48;3.53;;;1.90;;
19189;SDS011;9727;50.200;19.038;2023-04-15T12:26:15;3.77;;;2.23;;
19189;SDS011;9727;50.200;19.038;2023-04-15T12:28:42;4.67;;;2.90;;
19189;SDS011;9727;50.200;19.038;2023-04-15T12:31:10;3.90;;;2.53;;
19189;SDS011;9727;50.200;19.038;2023-04-15T12:33:38;2.73;;;1.90;;
19189;SDS011;9727;50.200;19.038;2023-04-15T12:36:05;3.20;;;2.30;;
19189;SDS011;9727;50.200;19.038;2023-04-15T12:38:33;6.07;;;2.67;;
19189;SDS011;9727;50.200;19.038;2023-04-15T12:41:00;3.40;;;2.33;;
19189;SDS011;9727;50.200;19.038;2023-04-15T12:43:26;4.20;;;2.60;;
19189;SDS011;9727;50.200;19.038;2023-04-15T12:45:54;5.17;;;2.93;;
19189;SDS011;9727;50.200;19.038;2023-04-15T12:48:24;4.90;;;3.53;;
19189;SDS011;9727;50.200;19.038;2023-04-15T12:50:51;5.00;;;2.30;;
19189;SDS011;9727;50.200;19.038;2023-04-15T12:53:17;3.27;;;2.20;;
19189;SDS011;9727;50.200;19.038;2023-04-15T12:55:46;3.80;;;2.50;;
19189;SDS011;9727;50.200;19.038;2023-04-15T12:58:13;3.87;;;2.40;;
19189;SDS011;9727;50.200;19.038;2023-04-15T13:00:40;2.93;;;2.37;;
19189;SDS011;9727;50.200;19.038;2023-04-15T13:03:07;4.53;;;2.33;;
19189;SDS011;9727;50.200;19.038;2023-04-15T13:05:33;5.13;;;2.40;;
19189;SDS011;9727;50.200;19.038;2023-04-15T13:08:01;4.03;;;2.10;;
19189;SDS011;9727;50.200;19.038;2023-04-15T13:10:28;4.33;;;2.67;;
19189;SDS011;9727;50.200;19.038;2023-04-15T13:12:57;4.80;;;2.13;;
19189;SDS011;9727;50.200;19.038;2023-04-15T13:15:24;5.03;;;2.30;;
19189;SDS011;9727;50.200;19.038;2023-04-15T13:17:50;2.77;;;2.40;;
19189;SDS011;9727;50.200;19.038;2023-04-15T13:20:17;5.23;;;2.33;;
19189;SDS011;9727;50.200;19.038;2023-04-15T13:22:49;3.03;;;2.37;;
19189;SDS011;9727;50.200;19.038;2023-04-15T13:25:17;4.27;;;2.93;;
19189;SDS011;9727;50.200;19.038;2023-04-15T13:27:47;3.80;;;2.60;;
19189;SDS011;9727;50.200;19.038;2023-04-15T13:30:15;3.90;;;2.30;;
19189;SDS011;9727;50.200;19.038;2023-04-15T13:32:42;4.00;;;2.10;;
19189;SDS011;9727;50.200;19.038;2023-04-15T13:35:09;6.13;;;3.60;;
19189;SDS011;9727;50.200;19.038;2023-04-15T13:37:36;5.37;;;3.83;;
19189;SDS011;9727;50.200;19.038;2023-04-15T13:40:03;2.60;;;2.10;;
19189;SDS011;9727;50.200;19.038;2023-04-15T13:42:35;3.83;;;2.23;;
19189;SDS011;9727;50.200;19.038;2023-04-15T13:45:03;4.27;;;2.57;;
19189;SDS011;9727;50.200;19.038;2023-04-15T13:47:31;3.63;;;2.33;;
19189;SDS011;9727;50.200;19.038;2023-04-15T13:49:59;5.40;;;3.07;;
19189;SDS011;9727;50.200;19.038;2023-04-15T13:52:26;4.83;;;3.00;;
19189;SDS011;9727;50.200;19.038;2023-04-15T13:54:52;4.63;;;3.40;;
19189;SDS011;9727;50.200;19.038;2023-04-15T13:57:19;4.13;;;2.80;;
19189;SDS011;9727;50.200;19.038;2023-04-15T13:59:47;3.40;;;2.40;;
19189;SDS011;9727;50.200;19.038;2023-04-15T14:02:13;5.13;;;2.47;;
19189;SDS011;9727;50.200;19.038;2023-04-15T14:04:42;3.77;;;2.90;;
19189;SDS011;9727;50.200;19.038;2023-04-15T14:07:08;4.33;;;3.20;;
19189;SDS011;9727;50.200;19.038;2023-04-15T14:09:35;5.40;;;4.30;;
19189;SDS011;9727;50.200;19.038;2023-04-15T14:12:02;5.63;;;4.20;;
19189;SDS011;9727;50.200;19.038;2023-04-15T14:14:29;3.37;;;2.60;;
19189;SDS011;9727;50.200;19.038;2023-04-15T14:16:55;4.30;;;2.60;;
19189;SDS011;9727;50.200;19.038;2023-04-15T14:19:22;3.63;;;2.30;;
19189;SDS011;9727;50.200;19.038;2023-04-15T14:21:50;2.40;;;2.00;;
19189;SDS011;9727;50.200;19.038;2023-04-15T14:24:17;5.13;;;2.47;;
19189;SDS011;9727;50.200;19.038;2023-04-15T14:26:47;4.40;;;3.43;;
19189;SDS011;9727;50.200;19.038;2023-04-15T14:29:13;4.50;;;2.50;;
19189;SDS011;9727;50.200;19.038;2023-04-15T14:31:41;2.87;;;2.20;;
19189;SDS011;9727;50.200;19.038;2023-04-15T14:34:09;2.83;;;2.50;;
19189;SDS011;9727;50.200;19.038;2023-04-15T14:36:35;3.60;;;2.40;;
19189;SDS011;9727;50.200;19.038;2023-04-15T14:39:03;3.40;;;2.50;;
19189;SDS011;9727;50.200;19.038;2023-04-15T14:41:30;3.70;;;2.57;;
19189;SDS011;9727;50.200;19.038;2023-04-15T14:43:57;4.27;;;3.23;;
19189;SDS011;9727;50.200;19.038;2023-04-15T14:46:25;2.93;;;2.47;;
19189;SDS011;9727;50.200;19.038;2023-04-15T14:48:52;3.60;;;2.40;;
19189;SDS011;9727;50.200;19.038;2023-04-15T14:51:19;9.07;;;4.87;;
19189;SDS011;9727;50.200;19.038;2023-04-15T14:53:47;11.73;;;7.53;;
19189;SDS011;9727;50.200;19.038;2023-04-15T14:56:16;9.47;;;6.47;;
19189;SDS011;9727;50.200;19.038;2023-04-15T14:58:47;7.17;;;4.30;;
19189;SDS011;9727;50.200;19.038;2023-04-15T15:01:24;9.83;;;6.77;;
19189;SDS011;9727;50.200;19.038;2023-04-15T15:03:51;11.47;;;6.83;;